sensor_id;sensor_type;location;lat;lon;timestamp;pressure;altitude;pressure_sealevel;temperature;humidity
43488;BME280;29078;41.932;25.554;2023-08-24T00:00:16;99485.63;;;28.68;36.27
43488;BME280;29078;41.932;25.554;2023-08-24T00:02:41;99494.06;;;28.67;37.01
43488;BME280;29078;41.932;25.554;2023-08-24T00:05:06;99488.44;;;28.63;36.81
43488;BME280;29078;41.932;25.554;2023-08-24T00:07:32;99490.44;;;28.58;36.93
43488;BME280;29078;41.932;25.554;2023-08-24T00:09:57;99487.00;;;28.52;36.77
43488;BME280;29078;41.932;25.554;2023-08-24T00:12:23;99488.47;;;28.44;37.26
43488;BME280;29078;41.932;25.554;2023-08-24T00:14:48;99484.25;;;28.38;37.10
43488;BME280;29078;41.932;25.554;2023-08-24T00:17:13;99479.69;;;28.34;36.95
43488;BME280;29078;41.932;25.554;2023-08-24T00:19:39;99477.88;;;28.29;37.21
43488;BME280;29078;41.932;25.554;2023-08-24T00:22:05;99475.25;;;28.24;37.16
43488;BME280;29078;41.932;25.554;2023-08-24T00:24:30;99473.84;;;28.27;36.97
43488;BME280;29078;41.932;25.554;2023-08-24T00:26:55;99472.72;;;28.28;36.91
43488;BME280;29078;41.932;25.554;2023-08-24T00:29:21;99475.25;;;28.24;36.83
43488;BME280;29078;41.932;25.554;2023-08-24T00:31:47;99483.63;;;28.23;37.32
43488;BME280;29078;41.932;25.554;2023-08-24T00:34:12;99473.59;;;28.23;37.17
43488;BME280;29078;41.932;25.554;2023-08-24T00:36:37;99479.59;;;28.20;36.88
43488;BME280;29078;41.932;25.554;2023-08-24T00:39:02;99471.22;;;28.16;37.35
43488;BME280;29078;41.932;25.554;2023-08-24T00:41:28;99482.97;;;28.12;36.87
43488;BME280;29078;41.932;25.554;2023-08-24T00:43:53;99476.53;;;28.08;37.17
43488;BME280;29078;41.932;25.554;2023-08-24T00:46:18;99480.63;;;28.05;37.34
43488;BME280;29078;41.932;25.554;2023-08-24T00:48:44;99475.50;;;28.04;37.03
43488;BME280;29078;41.932;25.554;2023-08-24T00:51:09;99482.03;;;28.03;37.00
43488;BME280;29078;41.932;25.554;2023-08-24T00:53:34;99488.03;;;28.00;37.53
43488;BME280;29078;41.932;25.554;2023-08-24T00:56:01;99494.06;;;27.97;37.52
43488;BME280;29078;41.932;25.554;2023-08-24T00:58:27;99495.75;;;27.93;37.80
43488;BME280;29078;41.932;25.554;2023-08-24T01:00:53;99484.97;;;27.88;37.95
43488;BME280;29078;41.932;25.554;2023-08-24T01:03:19;99487.47;;;27.84;38.22
43488;BME280;29078;41.932;25.554;2023-08-24T01:05:44;99495.38;;;27.80;38.00
43488;BME280;29078;41.932;25.554;2023-08-24T01:08:10;99488.63;;;27.78;38.25
43488;BME280;29078;41.932;25.554;2023-08-24T01:10:40;99491.34;;;27.78;38.28
43488;BME280;29078;41.932;25.554;2023-08-24T01:13:10;99486.22;;;27.76;37.70
43488;BME280;29078;41.932;25.554;2023-08-24T01:18:08;99494.94;;;27.73;38.13
43488;BME280;29078;41.932;25.554;2023-08-24T01:20:36;99484.38;;;27.72;38.14
43488;BME280;29078;41.932;25.554;2023-08-24T01:25:53;99482.06;;;27.60;38.48
43488;BME280;29078;41.932;25.554;2023-08-24T01:28:22;99479.81;;;27.43;39.16
43488;BME280;29078;41.932;25.554;2023-08-24T01:30:48;99481.84;;;27.33;39.14
43488;BME280;29078;41.932;25.554;2023-08-24T01:33:14;99476.25;;;27.24;38.58
43488;BME280;29078;41.932;25.554;2023-08-24T01:35:39;99482.31;;;27.16;40.14
43488;BME280;29078;41.932;25.554;2023-08-24T01:38:05;99478.63;;;27.07;39.81
43488;BME280;29078;41.932;25.554;2023-08-24T01:43:02;99470.09;;;26.89;39.53
43488;BME280;29078;41.932;25.554;2023-08-24T01:45:29;99462.25;;;26.88;39.72
43488;BME280;29078;41.932;25.554;2023-08-24T01:47:55;99472.56;;;26.86;40.05
43488;BME280;29078;41.932;25.554;2023-08-24T01:50:20;99457.75;;;26.78;39.51
43488;BME280;29078;41.932;25.554;2023-08-24T01:52:46;99458.06;;;26.72;40.03
43488;BME280;29078;41.932;25.554;2023-08-24T01:55:12;99452.69;;;26.67;40.49
43488;BME280;29078;41.932;25.554;2023-08-24T01:57:37;99458.69;;;26.64;40.59
43488;BME280;29078;41.932;25.554;2023-08-24T02:00:03;99465.47;;;26.61;40.50
43488;BME280;29078;41.932;25.554;2023-08-24T02:02:31;99456.03;;;26.58;39.28
43488;BME280;29078;41.932;25.554;2023-08-24T02:04:58;99454.47;;;26.52;40.24
43488;BME280;29078;41.932;25.554;2023-08-24T02:07:23;99460.22;;;26.46;41.08
43488;BME280;29078;41.932;25.554;2023-08-24T02:09:48;99457.81;;;26.39;40.58
43488;BME280;29078;41.932;25.554;2023-08-24T02:12:14;99463.28;;;26.34;40.47
43488;BME280;29078;41.932;25.554;2023-08-24T02:14:39;99467.63;;;26.30;40.38
43488;BME280;29078;41.932;25.554;2023-08-24T02:17:04;99464.66;;;26.26;40.23
43488;BME280;29078;41.932;25.554;2023-08-24T02:19:29;99452.59;;;26.14;40.64
43488;BME280;29078;41.932;25.554;2023-08-24T02:21:54;99455.59;;;26.12;40.59
43488;BME280;29078;41.932;25.554;2023-08-24T02:24:20;99459.06;;;26.18;41.35
43488;BME280;29078;41.932;25.554;2023-08-24T02:26:45;99462.25;;;26.25;40.36
43488;BME280;29078;41.932;25.554;2023-08-24T02:29:10;99470.09;;;26.26;41.15
43488;BME280;29078;41.932;25.554;2023-08-24T02:31:35;99473.13;;;26.20;41.44
43488;BME280;29078;41.932;25.554;2023-08-24T02:34:01;99471.53;;;26.14;40.93
43488;BME280;29078;41.932;25.554;2023-08-24T02:36:27;99462.66;;;26.08;40.50
43488;BME280;29078;41.932;25.554;2023-08-24T02:38:53;99460.50;;;26.00;41.33
43488;BME280;29078;41.932;25.554;2023-08-24T02:41:19;99457.28;;;25.98;41.58
43488;BME280;29078;41.932;25.554;2023-08-24T02:43:44;99457.81;;;26.00;41.08
43488;BME280;29078;41.932;25.554;2023-08-24T02:46:09;99452.16;;;25.96;41.51
43488;BME280;29078;41.932;25.554;2023-08-24T02:48:35;99462.97;;;25.96;42.02
43488;BME280;29078;41.932;25.554;2023-08-24T02:51:01;99454.03;;;25.96;41.48
43488;BME280;29078;41.932;25.554;2023-08-24T02:53:28;99456.47;;;25.97;41.01
43488;BME280;29078;41.932;25.554;2023-08-24T02:55:53;99455.41;;;25.93;40.89
43488;BME280;29078;41.932;25.554;2023-08-24T02:58:19;99454.59;;;25.93;40.86
43488;BME280;29078;41.932;25.554;2023-08-24T03:00:44;99461.13;;;25.87;41.38
43488;BME280;29078;41.932;25.554;2023-08-24T03:03:09;99460.38;;;25.81;41.67
43488;BME280;29078;41.932;25.554;2023-08-24T03:05:34;99460.94;;;25.78;40.34
43488;BME280;29078;41.932;25.554;2023-08-24T03:08:00;99460.72;;;25.64;41.65
43488;BME280;29078;41.932;25.554;2023-08-24T03:10:25;99458.56;;;25.61;41.72
43488;BME280;29078;41.932;25.554;2023-08-24T03:12:51;99465.59;;;25.62;41.78
43488;BME280;29078;41.932;25.554;2023-08-24T03:15:16;99462.09;;;25.57;42.09
43488;BME280;29078;41.932;25.554;2023-08-24T03:17:41;99466.16;;;25.54;41.91
43488;BME280;29078;41.932;25.554;2023-08-24T03:20:07;99462.63;;;25.59;41.23
43488;BME280;29078;41.932;25.554;2023-08-24T03:22:33;99469.66;;;25.60;41.75
43488;BME280;29078;41.932;25.554;2023-08-24T03:24:58;99471.03;;;25.57;42.29
43488;BME280;29078;41.932;25.554;2023-08-24T03:27:23;99473.19;;;25.55;41.81
43488;BME280;29078;41.932;25.554;2023-08-24T03:29:48;99467.25;;;25.53;42.05
43488;BME280;29078;41.932;25.554;2023-08-24T03:32:14;99467.00;;;25.50;42.40
43488;BME280;29078;41.932;25.554;2023-08-24T03:34:39;99463.50;;;25.44;42.49
43488;BME280;29078;41.932;25.554;2023-08-24T03:37:05;99475.69;;;25.42;41.41
43488;BME280;29078;41.932;25.554;2023-08-24T03:39:30;99474.34;;;25.39;42.20
43488;BME280;29078;41.932;25.554;2023-08-24T03:41:55;99482.47;;;25.39;43.29
43488;BME280;29078;41.932;25.554;2023-08-24T03:44:21;99480.56;;;25.40;41.45
43488;BME280;29078;41.932;25.554;2023-08-24T03:46:46;99480.84;;;25.38;42.50
43488;BME280;29078;41.932;25.554;2023-08-24T03:49:12;99483.00;;;25.36;42.51
43488;BME280;29078;41.932;25.554;2023-08-24T03:51:37;99491.66;;;25.33;42.87
43488;BME280;29078;41.932;25.554;2023-08-24T03:54:02;99491.41;;;25.29;43.34
43488;BME280;29078;41.932;25.554;2023-08-24T03:56:28;99494.94;;;25.30;43.02
43488;BME280;29078;41.932;25.554;2023-08-24T03:58:53;99505.44;;;25.26;43.86
43488;BME280;29078;41.932;25.554;2023-08-24T04:01:18;99498.19;;;25.27;42.15
43488;BME280;29078;41.932;25.554;2023-08-24T04:03:44;99494.38;;;25.23;42.17
43488;BME280;29078;41.932;25.554;2023-08-24T04:06:11;99491.41;;;25.19;42.60
43488;BME280;29078;41.932;25.554;2023-08-24T04:08:36;99486.84;;;25.15;42.58
43488;BME280;29078;41.932;25.554;2023-08-24T04:11:01;99489.25;;;25.16;42.14
43488;BME280;29078;41.932;25.554;2023-08-24T04:13:26;99488.47;;;25.16;42.31
43488;BME280;29078;41.932;25.554;2023-08-24T04:15:52;99489.53;;;25.20;42.83
43488;BME280;29078;41.932;25.554;2023-08-24T04:18:17;99487.63;;;25.25;41.88
43488;BME280;29078;41.932;25.554;2023-08-24T04:20:42;99488.44;;;25.21;42.22
43488;BME280;29078;41.932;25.554;2023-08-24T04:23:07;99492.22;;;25.20;42.87
43488;BME280;29078;41.932;25.554;2023-08-24T04:25:33;99493.59;;;25.17;42.51
43488;BME280;29078;41.932;25.554;2023-08-24T04:27:58;99498.47;;;25.15;42.44
43488;BME280;29078;41.932;25.554;2023-08-24T04:30:23;99497.91;;;25.13;42.55
43488;BME280;29078;41.932;25.554;2023-08-24T04:32:49;99500.59;;;25.18;42.70
43488;BME280;29078;41.932;25.554;2023-08-24T04:35:14;99501.41;;;25.24;42.22
43488;BME280;29078;41.932;25.554;2023-08-24T04:37:39;99495.72;;;25.25;42.65
43488;BME280;29078;41.932;25.554;2023-08-24T04:40:05;99492.22;;;25.25;42.45
43488;BME280;29078;41.932;25.554;2023-08-24T04:42:32;99493.31;;;25.29;42.88
43488;BME280;29078;41.932;25.554;2023-08-24T04:44:57;99497.63;;;25.30;42.24
43488;BME280;29078;41.932;25.554;2023-08-24T04:47:22;99495.47;;;25.32;42.60
43488;BME280;29078;41.932;25.554;2023-08-24T04:49:48;99502.47;;;25.33;43.51
43488;BME280;29078;41.932;25.554;2023-08-24T04:52:13;99506.78;;;25.39;41.82
43488;BME280;29078;41.932;25.554;2023-08-24T04:54:39;99506.00;;;25.33;43.03
43488;BME280;29078;41.932;25.554;2023-08-24T04:57:04;99504.09;;;25.34;43.12
43488;BME280;29078;41.932;25.554;2023-08-24T04:59:30;99505.41;;;25.42;42.87
43488;BME280;29078;41.932;25.554;2023-08-24T05:01:55;99499.44;;;25.50;42.16
43488;BME280;29078;41.932;25.554;2023-08-24T05:04:21;99497.81;;;25.54;41.57
43488;BME280;29078;41.932;25.554;2023-08-24T05:06:46;99507.50;;;25.60;42.01
43488;BME280;29078;41.932;25.554;2023-08-24T05:09:11;99504.78;;;25.65;42.58
43488;BME280;29078;41.932;25.554;2023-08-24T05:11:37;99505.88;;;25.64;42.13
43488;BME280;29078;41.932;25.554;2023-08-24T05:14:02;99506.41;;;25.71;42.74
43488;BME280;29078;41.932;25.554;2023-08-24T05:16:27;99511.25;;;25.74;42.67
43488;BME280;29078;41.932;25.554;2023-08-24T05:18:53;99507.13;;;25.87;42.38
43488;BME280;29078;41.932;25.554;2023-08-24T05:21:18;99506.78;;;26.04;41.79
43488;BME280;29078;41.932;25.554;2023-08-24T05:23:43;99505.09;;;26.13;41.89
43488;BME280;29078;41.932;25.554;2023-08-24T05:26:09;99500.38;;;26.28;41.41
43488;BME280;29078;41.932;25.554;2023-08-24T05:28:34;99517.63;;;26.43;41.01
43488;BME280;29078;41.932;25.554;2023-08-24T05:30:59;99512.13;;;26.53;41.44
43488;BME280;29078;41.932;25.554;2023-08-24T05:33:26;99506.63;;;26.63;40.94
43488;BME280;29078;41.932;25.554;2023-08-24T05:35:51;99503.00;;;26.73;41.38
43488;BME280;29078;41.932;25.554;2023-08-24T05:38:17;99504.84;;;26.82;40.77
43488;BME280;29078;41.932;25.554;2023-08-24T05:40:43;99502.91;;;26.88;40.73
43488;BME280;29078;41.932;25.554;2023-08-24T05:43:08;99512.03;;;26.97;41.09
43488;BME280;29078;41.932;25.554;2023-08-24T05:45:34;99510.34;;;27.06;40.75
43488;BME280;29078;41.932;25.554;2023-08-24T05:47:59;99514.03;;;27.15;41.04
43488;BME280;29078;41.932;25.554;2023-08-24T05:50:25;99515.88;;;27.20;40.75
43488;BME280;29078;41.932;25.554;2023-08-24T05:52:50;99517.13;;;27.28;40.75
43488;BME280;29078;41.932;25.554;2023-08-24T05:55:15;99505.13;;;27.34;40.29
43488;BME280;29078;41.932;25.554;2023-08-24T05:57:41;99505.81;;;27.44;40.11
43488;BME280;29078;41.932;25.554;2023-08-24T06:00:06;99509.84;;;27.52;39.98
43488;BME280;29078;41.932;25.554;2023-08-24T06:02:37;99508.91;;;27.62;39.91
43488;BME280;29078;41.932;25.554;2023-08-24T06:05:03;99507.75;;;27.68;39.40
43488;BME280;29078;41.932;25.554;2023-08-24T06:07:29;99506.81;;;27.77;39.47
43488;BME280;29078;41.932;25.554;2023-08-24T06:09:54;99500.81;;;27.80;39.27
43488;BME280;29078;41.932;25.554;2023-08-24T06:12:19;99512.09;;;27.88;39.67
43488;BME280;29078;41.932;25.554;2023-08-24T06:14:44;99504.63;;;27.98;40.01
43488;BME280;29078;41.932;25.554;2023-08-24T06:17:10;99501.25;;;28.06;39.02
43488;BME280;29078;41.932;25.554;2023-08-24T06:19:35;99504.91;;;28.15;39.75
43488;BME280;29078;41.932;25.554;2023-08-24T06:22:00;99504.81;;;28.21;38.92
43488;BME280;29078;41.932;25.554;2023-08-24T06:24:25;99502.63;;;28.23;38.84
43488;BME280;29078;41.932;25.554;2023-08-24T06:26:51;99499.91;;;28.23;39.28
43488;BME280;29078;41.932;25.554;2023-08-24T06:29:16;99499.69;;;28.24;38.97
43488;BME280;29078;41.932;25.554;2023-08-24T06:31:41;99509.34;;;28.30;39.26
43488;BME280;29078;41.932;25.554;2023-08-24T06:34:07;99506.56;;;28.35;38.79
43488;BME280;29078;41.932;25.554;2023-08-24T06:36:32;99512.94;;;28.44;38.77
43488;BME280;29078;41.932;25.554;2023-08-24T06:38:57;99523.63;;;28.55;38.45
43488;BME280;29078;41.932;25.554;2023-08-24T06:41:23;99509.34;;;28.63;38.53
43488;BME280;29078;41.932;25.554;2023-08-24T06:43:49;99517.63;;;28.71;38.31
43488;BME280;29078;41.932;25.554;2023-08-24T06:46:14;99513.94;;;28.81;38.31
43488;BME280;29078;41.932;25.554;2023-08-24T06:48:39;99515.78;;;28.86;38.02
43488;BME280;29078;41.932;25.554;2023-08-24T06:51:07;99511.06;;;28.91;37.62
43488;BME280;29078;41.932;25.554;2023-08-24T06:53:32;99507.94;;;28.98;37.42
43488;BME280;29078;41.932;25.554;2023-08-24T06:55:57;99515.75;;;29.04;37.50
43488;BME280;29078;41.932;25.554;2023-08-24T06:58:23;99519.16;;;29.10;37.57
43488;BME280;29078;41.932;25.554;2023-08-24T07:00:48;99516.16;;;29.12;37.89
43488;BME280;29078;41.932;25.554;2023-08-24T07:03:16;99518.78;;;29.17;37.05
43488;BME280;29078;41.932;25.554;2023-08-24T07:05:41;99523.59;;;29.20;37.53
43488;BME280;29078;41.932;25.554;2023-08-24T07:08:07;99524.72;;;29.19;37.19
43488;BME280;29078;41.932;25.554;2023-08-24T07:10:32;99517.56;;;29.23;37.21
43488;BME280;29078;41.932;25.554;2023-08-24T07:12:58;99505.47;;;29.29;36.68
43488;BME280;29078;41.932;25.554;2023-08-24T07:15:23;99508.28;;;29.37;36.78
43488;BME280;29078;41.932;25.554;2023-08-24T07:17:48;99509.53;;;29.45;36.80
43488;BME280;29078;41.932;25.554;2023-08-24T07:20:13;99503.06;;;29.55;36.52
43488;BME280;29078;41.932;25.554;2023-08-24T07:22:39;99511.63;;;29.62;36.39
43488;BME280;29078;41.932;25.554;2023-08-24T07:25:05;99510.59;;;29.71;36.46
43488;BME280;29078;41.932;25.554;2023-08-24T07:27:33;99516.34;;;29.84;36.29
43488;BME280;29078;41.932;25.554;2023-08-24T07:29:59;99515.00;;;29.95;36.28
43488;BME280;29078;41.932;25.554;2023-08-24T07:32:25;99506.94;;;30.03;35.95
43488;BME280;29078;41.932;25.554;2023-08-24T07:34:51;99510.84;;;30.11;36.37
43488;BME280;29078;41.932;25.554;2023-08-24T07:37:16;99508.50;;;30.18;35.96
43488;BME280;29078;41.932;25.554;2023-08-24T07:39:41;99504.38;;;30.21;35.94
43488;BME280;29078;41.932;25.554;2023-08-24T07:42:07;99504.44;;;30.29;35.55
43488;BME280;29078;41.932;25.554;2023-08-24T07:44:32;99513.16;;;30.40;35.77
43488;BME280;29078;41.932;25.554;2023-08-24T07:46:57;99507.28;;;30.47;35.19
43488;BME280;29078;41.932;25.554;2023-08-24T07:49:23;99506.25;;;30.56;35.39
43488;BME280;29078;41.932;25.554;2023-08-24T07:51:48;99508.56;;;30.63;35.33
43488;BME280;29078;41.932;25.554;2023-08-24T07:54:13;99506.19;;;30.70;35.03
43488;BME280;29078;41.932;25.554;2023-08-24T07:56:39;99511.53;;;30.75;34.42
43488;BME280;29078;41.932;25.554;2023-08-24T07:59:04;99513.50;;;30.83;34.58
43488;BME280;29078;41.932;25.554;2023-08-24T08:01:30;99429.00;;;30.39;34.49
43488;BME280;29078;41.932;25.554;2023-08-24T08:03:55;99516.13;;;30.97;34.63
43488;BME280;29078;41.932;25.554;2023-08-24T08:06:21;99512.81;;;31.09;34.78
43488;BME280;29078;41.932;25.554;2023-08-24T08:08:47;99515.91;;;31.16;34.54
43488;BME280;29078;41.932;25.554;2023-08-24T08:11:12;99518.38;;;31.26;34.24
43488;BME280;29078;41.932;25.554;2023-08-24T08:13:37;99518.25;;;31.31;33.98
43488;BME280;29078;41.932;25.554;2023-08-24T08:16:06;99519.88;;;31.41;34.18
43488;BME280;29078;41.932;25.554;2023-08-24T08:18:32;99513.31;;;31.50;34.02
43488;BME280;29078;41.932;25.554;2023-08-24T08:20:58;99514.47;;;31.58;33.87
43488;BME280;29078;41.932;25.554;2023-08-24T08:23:23;99514.47;;;31.67;33.67
43488;BME280;29078;41.932;25.554;2023-08-24T08:25:49;99502.16;;;31.78;33.19
43488;BME280;29078;41.932;25.554;2023-08-24T08:28:14;99502.66;;;31.88;33.55
43488;BME280;29078;41.932;25.554;2023-08-24T08:30:39;99499.63;;;31.99;33.46
43488;BME280;29078;41.932;25.554;2023-08-24T08:33:04;99500.44;;;32.08;33.10
43488;BME280;29078;41.932;25.554;2023-08-24T08:35:30;99503.81;;;32.22;33.28
43488;BME280;29078;41.932;25.554;2023-08-24T08:37:55;99500.63;;;32.29;32.52
43488;BME280;29078;41.932;25.554;2023-08-24T08:40:20;99496.09;;;32.41;32.61
43488;BME280;29078;41.932;25.554;2023-08-24T08:42:46;99496.88;;;32.50;32.60
43488;BME280;29078;41.932;25.554;2023-08-24T08:45:12;99485.28;;;32.62;32.29
43488;BME280;29078;41.932;25.554;2023-08-24T08:47:37;99484.81;;;32.77;31.92
43488;BME280;29078;41.932;25.554;2023-08-24T08:50:03;99483.66;;;32.87;32.02
43488;BME280;29078;41.932;25.554;2023-08-24T08:52:29;99477.03;;;32.97;31.07
43488;BME280;29078;41.932;25.554;2023-08-24T08:54:54;99485.81;;;33.11;31.38
43488;BME280;29078;41.932;25.554;2023-08-24T08:57:20;99473.84;;;33.24;31.33
43488;BME280;29078;41.932;25.554;2023-08-24T08:59:46;99474.09;;;33.40;31.42
43488;BME280;29078;41.932;25.554;2023-08-24T09:02:15;99480.03;;;33.51;31.02
43488;BME280;29078;41.932;25.554;2023-08-24T09:04:41;99479.75;;;33.64;30.39
43488;BME280;29078;41.932;25.554;2023-08-24T09:07:07;99469.69;;;33.77;29.66
43488;BME280;29078;41.932;25.554;2023-08-24T09:09:35;99470.47;;;33.77;29.54
43488;BME280;29078;41.932;25.554;2023-08-24T09:12:02;99468.66;;;33.90;30.13
43488;BME280;29078;41.932;25.554;2023-08-24T09:14:28;99465.75;;;34.07;29.54
43488;BME280;29078;41.932;25.554;2023-08-24T09:16:53;99465.16;;;34.23;30.14
43488;BME280;29078;41.932;25.554;2023-08-24T09:19:18;99453.97;;;34.28;29.38
43488;BME280;29078;41.932;25.554;2023-08-24T09:21:44;99453.63;;;34.50;29.13
43488;BME280;29078;41.932;25.554;2023-08-24T09:24:09;99451.25;;;34.61;28.91
43488;BME280;29078;41.932;25.554;2023-08-24T09:26:36;99454.34;;;34.71;29.40
43488;BME280;29078;41.932;25.554;2023-08-24T09:29:15;99443.41;;;34.84;28.78
43488;BME280;29078;41.932;25.554;2023-08-24T09:31:40;99443.09;;;35.10;29.34
43488;BME280;29078;41.932;25.554;2023-08-24T09:34:08;99444.25;;;35.33;27.80
43488;BME280;29078;41.932;25.554;2023-08-24T09:36:34;99440.00;;;35.48;28.45
43488;BME280;29078;41.932;25.554;2023-08-24T09:39:00;99437.69;;;35.62;27.26
43488;BME280;29078;41.932;25.554;2023-08-24T09:44:04;99437.50;;;35.95;28.00
43488;BME280;29078;41.932;25.554;2023-08-24T09:46:30;99441.31;;;35.90;26.45
43488;BME280;29078;41.932;25.554;2023-08-24T09:48:55;99435.34;;;35.88;26.70
43488;BME280;29078;41.932;25.554;2023-08-24T09:51:23;99427.97;;;36.05;27.32
43488;BME280;29078;41.932;25.554;2023-08-24T09:53:51;99425.94;;;36.17;27.79
43488;BME280;29078;41.932;25.554;2023-08-24T09:56:16;99420.16;;;36.35;26.42
43488;BME280;29078;41.932;25.554;2023-08-24T09:58:42;99424.28;;;36.56;26.92
43488;BME280;29078;41.932;25.554;2023-08-24T10:01:09;99421.91;;;36.71;25.77
43488;BME280;29078;41.932;25.554;2023-08-24T10:03:34;99415.00;;;36.77;25.73
43488;BME280;29078;41.932;25.554;2023-08-24T10:06:05;99407.25;;;36.98;25.50
43488;BME280;29078;41.932;25.554;2023-08-24T10:08:32;99402.69;;;37.21;25.72
43488;BME280;29078;41.932;25.554;2023-08-24T10:10:59;99397.09;;;37.34;25.36
43488;BME280;29078;41.932;25.554;2023-08-24T10:13:36;99399.50;;;37.54;25.87
43488;BME280;29078;41.932;25.554;2023-08-24T10:16:05;99388.53;;;37.74;25.21
43488;BME280;29078;41.932;25.554;2023-08-24T10:18:30;99386.34;;;37.83;25.91
43488;BME280;29078;41.932;25.554;2023-08-24T10:20:55;99397.75;;;38.01;24.29
43488;BME280;29078;41.932;25.554;2023-08-24T10:23:21;99378.75;;;37.96;25.07
43488;BME280;29078;41.932;25.554;2023-08-24T10:25:47;99387.28;;;38.10;25.10
43488;BME280;29078;41.932;25.554;2023-08-24T10:28:14;99375.44;;;38.29;24.67
43488;BME280;29078;41.932;25.554;2023-08-24T10:30:40;99373.53;;;38.33;25.23
43488;BME280;29078;41.932;25.554;2023-08-24T10:33:08;99370.84;;;38.36;25.23
43488;BME280;29078;41.932;25.554;2023-08-24T10:35:36;99364.94;;;38.38;23.54
43488;BME280;29078;41.932;25.554;2023-08-24T10:38:01;99366.91;;;38.37;23.59
43488;BME280;29078;41.932;25.554;2023-08-24T10:42:58;99365.63;;;38.54;23.86
43488;BME280;29078;41.932;25.554;2023-08-24T10:45:27;99363.44;;;38.63;23.02
43488;BME280;29078;41.932;25.554;2023-08-24T10:48:12;99355.81;;;38.80;24.03
43488;BME280;29078;41.932;25.554;2023-08-24T10:50:37;99347.38;;;38.95;23.63
43488;BME280;29078;41.932;25.554;2023-08-24T10:53:02;99349.44;;;39.02;23.89
43488;BME280;29078;41.932;25.554;2023-08-24T10:55:29;99346.53;;;39.18;23.64
43488;BME280;29078;41.932;25.554;2023-08-24T10:57:58;99341.56;;;39.30;22.59
43488;BME280;29078;41.932;25.554;2023-08-24T11:00:27;99332.56;;;39.37;23.42
43488;BME280;29078;41.932;25.554;2023-08-24T11:02:53;99335.97;;;39.53;22.13
43488;BME280;29078;41.932;25.554;2023-08-24T11:05:22;99319.47;;;39.60;22.80
43488;BME280;29078;41.932;25.554;2023-08-24T11:07:53;99316.38;;;39.65;22.30
43488;BME280;29078;41.932;25.554;2023-08-24T11:10:20;99312.63;;;39.84;23.18
43488;BME280;29078;41.932;25.554;2023-08-24T11:15:32;99310.84;;;40.02;22.43
43488;BME280;29078;41.932;25.554;2023-08-24T11:18:14;99304.91;;;40.00;21.38
43488;BME280;29078;41.932;25.554;2023-08-24T11:20:43;99308.09;;;40.02;22.01
43488;BME280;29078;41.932;25.554;2023-08-24T11:23:09;99289.94;;;40.05;21.86
43488;BME280;29078;41.932;25.554;2023-08-24T11:25:37;99294.44;;;40.20;22.35
43488;BME280;29078;41.932;25.554;2023-08-24T11:28:05;99288.22;;;40.34;21.48
43488;BME280;29078;41.932;25.554;2023-08-24T11:30:34;99291.94;;;40.49;21.88
43488;BME280;29078;41.932;25.554;2023-08-24T11:32:59;99282.50;;;40.57;21.29
43488;BME280;29078;41.932;25.554;2023-08-24T11:35:25;99275.44;;;40.67;21.47
43488;BME280;29078;41.932;25.554;2023-08-24T11:37:54;99267.50;;;40.65;21.16
43488;BME280;29078;41.932;25.554;2023-08-24T11:40:19;99260.72;;;40.52;21.24
43488;BME280;29078;41.932;25.554;2023-08-24T11:42:54;99255.94;;;40.49;21.64
43488;BME280;29078;41.932;25.554;2023-08-24T11:45:20;99257.53;;;40.50;21.82
43488;BME280;29078;41.932;25.554;2023-08-24T11:47:45;99245.75;;;40.60;21.71
43488;BME280;29078;41.932;25.554;2023-08-24T11:50:10;99256.84;;;40.63;21.58
43488;BME280;29078;41.932;25.554;2023-08-24T11:52:39;99238.69;;;40.73;21.78
43488;BME280;29078;41.932;25.554;2023-08-24T11:55:05;99242.78;;;40.90;21.83
43488;BME280;29078;41.932;25.554;2023-08-24T11:57:33;99236.09;;;40.94;21.68
43488;BME280;29078;41.932;25.554;2023-08-24T11:59:58;99236.53;;;41.04;21.03
43488;BME280;29078;41.932;25.554;2023-08-24T12:02:24;99233.34;;;41.05;21.42
43488;BME280;29078;41.932;25.554;2023-08-24T12:04:49;99231.38;;;41.02;20.17
43488;BME280;29078;41.932;25.554;2023-08-24T12:07:15;99230.16;;;41.00;20.70
43488;BME280;29078;41.932;25.554;2023-08-24T12:09:42;99227.84;;;41.16;20.88
43488;BME280;29078;41.932;25.554;2023-08-24T12:12:16;99224.34;;;41.22;20.66
43488;BME280;29078;41.932;25.554;2023-08-24T12:14:44;99222.38;;;41.34;21.32
43488;BME280;29078;41.932;25.554;2023-08-24T12:17:09;99219.22;;;41.35;21.86
43488;BME280;29078;41.932;25.554;2023-08-24T12:19:35;99211.31;;;41.41;20.84
43488;BME280;29078;41.932;25.554;2023-08-24T12:22:00;99202.59;;;41.35;21.86
43488;BME280;29078;41.932;25.554;2023-08-24T12:24:25;99202.59;;;41.35;20.80
43488;BME280;29078;41.932;25.554;2023-08-24T12:26:56;99203.78;;;41.34;21.12
43488;BME280;29078;41.932;25.554;2023-08-24T12:29:26;99198.25;;;41.31;20.27
43488;BME280;29078;41.932;25.554;2023-08-24T12:31:52;99190.31;;;41.29;21.13
43488;BME280;29078;41.932;25.554;2023-08-24T12:34:21;99193.88;;;41.30;21.37
43488;BME280;29078;41.932;25.554;2023-08-24T12:36:46;99189.13;;;41.30;21.07
43488;BME280;29078;41.932;25.554;2023-08-24T12:39:11;99180.38;;;41.14;21.37
43488;BME280;29078;41.932;25.554;2023-08-24T12:41:40;99171.66;;;41.12;21.22
43488;BME280;29078;41.932;25.554;2023-08-24T12:44:05;99172.84;;;41.14;21.65
43488;BME280;29078;41.932;25.554;2023-08-24T12:46:31;99178.00;;;41.16;22.22
43488;BME280;29078;41.932;25.554;2023-08-24T12:48:57;99172.44;;;41.16;21.54
43488;BME280;29078;41.932;25.554;2023-08-24T12:51:22;99169.22;;;40.96;21.37
43488;BME280;29078;41.932;25.554;2023-08-24T12:53:49;99171.53;;;40.80;21.06
43488;BME280;29078;41.932;25.554;2023-08-24T12:56:14;99162.09;;;40.91;21.45
43488;BME280;29078;41.932;25.554;2023-08-24T12:58:40;99163.69;;;40.96;20.82